createdAt,value
2019-04-28T00:03:10.826Z,1.77
2019-04-28T00:05:13.664Z,1.05
2019-04-28T00:07:15.660Z,1.67
2019-04-28T00:09:18.234Z,1.42
2019-04-28T00:11:21.634Z,1.60
2019-04-28T00:13:24.849Z,1.35
2019-04-28T00:15:30.654Z,1.20
2019-04-28T00:17:32.867Z,1.77
2019-04-28T00:19:35.544Z,1.10
2019-04-28T00:22:06.433Z,1.15
2019-04-28T00:24:28.066Z,1.72
2019-04-28T00:26:37.157Z,1.10
2019-04-28T00:28:41.603Z,1.45
2019-04-28T00:30:44.061Z,1.40
2019-04-28T00:32:47.232Z,1.20
2019-04-28T00:34:51.009Z,1.15
2019-04-28T00:37:12.873Z,1.15
2019-04-28T00:39:14.908Z,1.30
2019-04-28T00:41:16.862Z,1.55
2019-04-28T00:43:19.108Z,1.20
2019-04-28T00:45:21.539Z,1.17
2019-04-28T00:47:25.711Z,2.00
2019-04-28T00:49:46.365Z,1.20
2019-04-28T00:51:51.824Z,1.35
2019-04-28T00:53:53.827Z,1.25
2019-04-28T00:55:55.884Z,1.32
2019-04-28T00:57:58.550Z,1.37
2019-04-28T01:00:02.382Z,1.40
2019-04-28T01:02:13.613Z,2.00
2019-04-28T01:04:18.674Z,1.50
2019-04-28T01:06:22.189Z,1.70
2019-04-28T01:08:24.612Z,1.92
2019-04-28T01:10:27.629Z,1.60
2019-04-28T01:12:31.062Z,1.55
2019-04-28T01:14:34.458Z,1.57
2019-04-28T01:16:49.806Z,1.90
2019-04-28T01:18:56.971Z,1.70
2019-04-28T01:20:59.747Z,1.62
2019-04-28T01:23:01.824Z,1.85
2019-04-28T01:25:04.268Z,1.67
2019-04-28T01:29:10.252Z,2.05
2019-04-28T01:31:21.231Z,2.00
2019-04-28T01:33:34.673Z,1.75
2019-04-28T01:35:36.673Z,1.87
2019-04-28T01:37:40.573Z,2.02
2019-04-28T01:39:42.764Z,1.62
2019-04-28T01:41:44.764Z,1.85
2019-04-28T01:43:46.776Z,1.75
2019-04-28T01:45:50.282Z,1.72
2019-04-28T01:47:52.423Z,2.00
2019-04-28T01:49:54.431Z,1.90
2019-04-28T01:52:00.864Z,2.27
2019-04-28T01:54:02.941Z,2.20
2019-04-28T01:56:06.351Z,2.17
2019-04-28T01:58:09.560Z,1.90
2019-04-28T02:00:23.038Z,1.90
2019-04-28T02:02:19.931Z,1.90
2019-04-28T02:04:22.251Z,1.98
2019-04-28T02:06:24.386Z,1.90
2019-04-28T02:08:26.584Z,2.00
2019-04-28T02:10:30.149Z,1.90
2019-04-28T02:12:33.276Z,2.00
2019-04-28T02:14:35.260Z,1.82
2019-04-28T02:16:37.302Z,1.90
2019-04-28T02:18:40.404Z,2.10
2019-04-28T02:20:44.546Z,2.00
2019-04-28T02:22:53.126Z,1.87
2019-04-28T02:24:55.194Z,1.82
2019-04-28T02:26:57.597Z,1.90
2019-04-28T02:31:02.654Z,1.85
2019-04-28T02:33:04.651Z,1.85
2019-04-28T02:35:06.782Z,1.45
2019-04-28T02:37:11.282Z,1.70
2019-04-28T02:39:12.832Z,1.77
2019-04-28T02:41:15.201Z,1.70
2019-04-28T02:43:17.221Z,1.77
2019-04-28T02:45:21.724Z,1.95
2019-04-28T02:47:27.140Z,1.82
2019-04-28T02:49:51.433Z,1.82
2019-04-28T02:52:20.666Z,1.95
2019-04-28T02:54:24.572Z,1.70
2019-04-28T02:56:26.608Z,1.50
2019-04-28T02:58:31.303Z,2.40
2019-04-28T03:00:32.704Z,1.95
2019-04-28T03:02:34.683Z,1.90
2019-04-28T03:04:36.786Z,1.75
2019-04-28T03:06:40.692Z,1.95
2019-04-28T03:08:42.886Z,2.55
2019-04-28T03:10:45.284Z,2.17
2019-04-28T03:14:50.582Z,2.10
2019-04-28T03:16:53.068Z,2.20
2019-04-28T03:18:55.173Z,2.42
2019-04-28T03:20:57.162Z,2.47
2019-04-28T03:23:00.942Z,2.83
2019-04-28T03:25:05.426Z,3.15
2019-04-28T03:27:24.163Z,3.05
2019-04-28T03:29:40.380Z,2.90
2019-04-28T03:32:10.198Z,2.80
2019-04-28T03:33:55.852Z,3.15
2019-04-28T03:35:55.562Z,2.52
2019-04-28T03:37:57.612Z,2.77
2019-04-28T03:40:00.607Z,2.62
2019-04-28T03:42:03.411Z,2.87
2019-04-28T03:44:05.430Z,2.80
2019-04-28T03:46:13.223Z,2.83
2019-04-28T03:48:15.189Z,3.22
2019-04-28T03:50:17.196Z,3.10
2019-04-28T03:52:21.255Z,3.85
2019-04-28T03:54:23.511Z,3.90
2019-04-28T03:58:27.397Z,3.58
2019-04-28T04:00:31.159Z,3.70
2019-04-28T04:02:34.015Z,3.65
2019-04-28T04:06:37.775Z,4.10
2019-04-28T04:08:40.810Z,3.50
2019-04-28T04:11:02.357Z,4.00
2019-04-28T04:13:11.745Z,4.28
2019-04-28T04:15:43.611Z,3.70
2019-04-28T04:18:04.477Z,3.95
2019-04-28T04:20:06.685Z,3.52
2019-04-28T04:22:10.154Z,4.25
2019-04-28T04:24:14.466Z,4.53
2019-04-28T04:26:16.798Z,3.45
2019-04-28T04:28:20.635Z,3.87
2019-04-28T04:30:23.161Z,3.37
2019-04-28T04:34:30.225Z,3.47
2019-04-28T04:36:32.552Z,3.20
2019-04-28T04:38:34.558Z,2.90
2019-04-28T04:40:36.527Z,2.47
2019-04-28T04:42:40.289Z,2.95
2019-04-28T04:44:42.424Z,3.62
2019-04-28T04:46:45.375Z,2.45
2019-04-28T04:48:47.428Z,2.55
2019-04-28T04:50:51.041Z,2.33
2019-04-28T04:52:53.268Z,2.45
2019-04-28T04:54:55.526Z,2.50
2019-04-28T04:56:59.908Z,2.42
2019-04-28T04:59:02.884Z,2.80
2019-04-28T05:01:36.726Z,2.40
2019-04-28T05:03:40.583Z,2.70
2019-04-28T05:05:42.787Z,2.58
2019-04-28T05:07:45.105Z,2.30
2019-04-28T05:09:49.559Z,2.77
2019-04-28T05:11:52.933Z,2.30
2019-04-28T05:13:54.896Z,2.85
2019-04-28T05:15:56.862Z,2.77
2019-04-28T05:18:00.213Z,2.95
2019-04-28T05:20:02.931Z,3.00
2019-04-28T05:22:06.766Z,2.60
2019-04-28T05:24:27.129Z,2.35
2019-04-28T05:26:30.076Z,3.10
2019-04-28T05:28:36.527Z,3.00
2019-04-28T05:30:39.817Z,2.98
2019-04-28T05:32:44.922Z,3.15
2019-04-28T05:34:46.478Z,2.85
2019-04-28T05:36:47.877Z,2.70
2019-04-28T05:38:50.237Z,3.62
2019-04-28T05:43:00.812Z,3.90
2019-04-28T05:45:03.752Z,4.12
2019-04-28T05:47:06.862Z,4.33
2019-04-28T05:49:20.643Z,4.00
2019-04-28T05:53:50.624Z,4.45
2019-04-28T05:56:05.031Z,4.20
2019-04-28T05:58:14.802Z,4.25
2019-04-28T06:00:39.688Z,4.75
2019-04-28T06:02:55.891Z,4.53
2019-04-28T06:04:49.469Z,4.28
2019-04-28T06:09:15.662Z,4.58
2019-04-28T06:11:34.417Z,4.03
2019-04-28T06:13:36.433Z,4.35
2019-04-28T06:15:39.700Z,3.77
2019-04-28T06:17:41.899Z,4.05
2019-04-28T06:19:44.189Z,3.72
2019-04-28T06:21:46.203Z,4.25
2019-04-28T06:23:48.534Z,4.03
2019-04-28T06:25:50.514Z,3.67
2019-04-28T06:27:52.660Z,3.92
2019-04-28T06:29:54.693Z,4.03
2019-04-28T06:31:56.694Z,5.05
2019-04-28T06:33:58.897Z,4.25
2019-04-28T06:36:00.922Z,4.60
2019-04-28T06:38:02.994Z,5.10
2019-04-28T06:40:05.387Z,4.70
2019-04-28T06:44:08.925Z,4.75
2019-04-28T06:46:10.904Z,4.87
2019-04-28T06:48:12.908Z,4.85
2019-04-28T06:50:15.069Z,5.08
2019-04-28T06:52:17.047Z,5.30
2019-04-28T06:54:19.138Z,4.85
2019-04-28T06:56:21.501Z,5.53
2019-04-28T06:58:23.502Z,5.45
2019-04-28T07:00:25.667Z,5.05
2019-04-28T07:02:27.791Z,4.62
2019-04-28T07:04:29.808Z,5.05
2019-04-28T07:06:31.803Z,5.10
2019-04-28T07:08:33.824Z,4.65
2019-04-28T07:10:35.825Z,5.12
2019-04-28T07:12:38.216Z,4.47
2019-04-28T07:14:40.253Z,4.72
2019-04-28T07:16:42.355Z,5.50
2019-04-28T07:18:44.322Z,5.72
2019-04-28T07:20:52.934Z,5.30
2019-04-28T07:22:54.948Z,4.83
2019-04-28T07:24:57.939Z,5.20
2019-04-28T07:26:59.995Z,5.05
2019-04-28T07:29:02.002Z,5.58
2019-04-28T07:31:04.209Z,5.00
2019-04-28T07:33:06.307Z,4.85
2019-04-28T07:35:08.288Z,5.20
2019-04-28T07:37:10.314Z,5.90
2019-04-28T07:39:12.696Z,5.28
2019-04-28T07:43:16.389Z,5.20
2019-04-28T07:45:18.631Z,5.75
2019-04-28T07:47:20.642Z,5.05
2019-04-28T07:49:22.687Z,5.30
2019-04-28T07:51:27.882Z,5.12
2019-04-28T07:53:38.622Z,5.75
2019-04-28T07:55:40.616Z,5.90
2019-04-28T07:57:42.725Z,5.33
2019-04-28T07:59:44.818Z,5.17
2019-04-28T08:01:47.358Z,5.03
2019-04-28T08:05:52.500Z,5.33
2019-04-28T08:07:54.490Z,5.20
2019-04-28T08:09:56.478Z,5.28
2019-04-28T08:11:58.693Z,4.85
2019-04-28T08:14:01.024Z,5.03
2019-04-28T08:16:03.097Z,5.67
2019-04-28T08:18:06.414Z,5.83
2019-04-28T08:20:08.587Z,5.25
2019-04-28T08:22:10.687Z,5.45
2019-04-28T08:24:12.672Z,4.92
2019-04-28T08:26:14.723Z,5.85
2019-04-28T08:28:16.834Z,5.33
2019-04-28T08:30:18.861Z,5.30
2019-04-28T08:32:33.388Z,6.00
2019-04-28T08:34:36.433Z,5.60
2019-04-28T08:36:38.415Z,5.30
2019-04-28T08:38:40.516Z,5.62
2019-04-28T08:40:42.655Z,5.78
2019-04-28T08:42:44.759Z,5.58
2019-04-28T08:44:46.771Z,5.80
2019-04-28T08:46:48.754Z,5.05
2019-04-28T08:48:50.758Z,5.67
2019-04-28T08:50:52.900Z,5.87
2019-04-28T08:52:54.887Z,5.40
2019-04-28T08:54:56.946Z,4.80
2019-04-28T08:56:59.112Z,5.03
2019-04-28T08:59:01.479Z,5.17
2019-04-28T09:01:03.574Z,4.95
2019-04-28T09:03:05.614Z,7.30
2019-04-28T09:05:08.073Z,5.53
2019-04-28T09:09:14.383Z,3.72
2019-04-28T09:11:16.477Z,4.70
2019-04-28T09:13:18.537Z,4.40
2019-04-28T09:15:22.829Z,4.70
2019-04-28T09:17:24.833Z,4.95
2019-04-28T09:19:26.890Z,4.62
2019-04-28T09:21:28.877Z,4.60
2019-04-28T09:23:30.857Z,4.20
2019-04-28T09:25:32.870Z,4.30
2019-04-28T09:27:34.875Z,4.03
2019-04-28T09:29:37.020Z,4.25
2019-04-28T09:31:39.403Z,4.30
2019-04-28T09:35:45.593Z,4.58
2019-04-28T09:37:47.640Z,4.12
2019-04-28T09:39:58.861Z,4.20
2019-04-28T09:42:19.003Z,4.45
2019-04-28T09:44:21.175Z,4.37
2019-04-28T09:46:29.811Z,4.25
2019-04-28T09:48:35.363Z,5.15
2019-04-28T09:50:37.394Z,4.80
2019-04-28T09:52:39.399Z,4.47
2019-04-28T09:54:41.395Z,4.95
2019-04-28T09:56:55.724Z,5.15
2019-04-28T09:58:47.293Z,5.58
2019-04-28T10:00:49.923Z,5.72
2019-04-28T10:02:51.930Z,5.35
2019-04-28T10:04:54.072Z,5.87
2019-04-28T10:06:56.520Z,5.20
2019-04-28T10:11:00.487Z,4.97
2019-04-28T10:13:02.465Z,5.20
2019-04-28T10:15:06.548Z,5.08
2019-04-28T10:17:08.777Z,4.95
2019-04-28T10:19:13.541Z,5.55
2019-04-28T10:21:15.552Z,4.80
2019-04-28T10:23:17.564Z,5.62
2019-04-28T10:25:21.224Z,4.22
2019-04-28T10:27:23.416Z,5.05
2019-04-28T10:29:25.432Z,5.65
2019-04-28T10:31:27.609Z,5.42
2019-04-28T10:33:29.780Z,6.80
2019-04-28T10:35:31.752Z,5.87
2019-04-28T10:37:33.771Z,6.00
2019-04-28T10:39:42.625Z,6.15
2019-04-28T10:41:44.720Z,6.45
2019-04-28T10:43:46.768Z,6.58
2019-04-28T10:45:50.705Z,5.95
2019-04-28T10:47:52.678Z,7.35
2019-04-28T10:49:55.319Z,6.75
2019-04-28T10:51:59.543Z,5.70
2019-04-28T10:54:01.519Z,5.92
2019-04-28T10:56:04.888Z,6.50
2019-04-28T10:58:07.509Z,7.35
2019-04-28T11:00:10.576Z,6.50
2019-04-28T11:02:12.864Z,6.30
2019-04-28T11:04:32.946Z,6.60
2019-04-28T11:06:34.915Z,6.40
2019-04-28T11:08:47.966Z,6.12
2019-04-28T11:10:49.994Z,6.75
2019-04-28T11:12:51.995Z,6.12
2019-04-28T11:14:54.022Z,6.75
2019-04-28T11:16:56.086Z,7.25
2019-04-28T11:18:58.085Z,6.05
2019-04-28T11:21:00.289Z,6.12
2019-04-28T11:23:02.444Z,5.60
2019-04-28T11:25:06.308Z,6.40
2019-04-28T11:27:08.792Z,6.60
2019-04-28T11:31:12.938Z,6.40
2019-04-28T11:33:53.446Z,6.15
2019-04-28T11:35:55.440Z,5.78
2019-04-28T11:37:57.593Z,6.67
2019-04-28T11:39:59.609Z,5.78
2019-04-28T11:42:01.812Z,6.15
2019-04-28T11:44:05.020Z,5.58
2019-04-28T11:46:08.939Z,6.37
2019-04-28T11:48:10.941Z,7.47
2019-04-28T11:50:13.616Z,6.75
2019-04-28T11:52:15.765Z,6.37
2019-04-28T11:54:17.756Z,6.70
2019-04-28T11:56:19.760Z,5.20
2019-04-28T11:58:21.986Z,5.75
2019-04-28T12:00:34.681Z,5.97
2019-04-28T12:02:37.953Z,5.92
2019-04-28T12:04:40.016Z,6.42
2019-04-28T12:06:42.299Z,6.58
2019-04-28T12:08:44.443Z,6.10
2019-04-28T12:10:56.545Z,4.90
2019-04-28T12:13:23.017Z,5.42
2019-04-28T12:15:47.297Z,5.22
2019-04-28T12:18:09.839Z,6.50
2019-04-28T12:20:16.553Z,6.08
2019-04-28T12:22:18.698Z,6.90
2019-04-28T12:24:21.112Z,7.10
2019-04-28T12:28:24.924Z,6.20
2019-04-28T12:30:26.945Z,6.60
2019-04-28T12:32:29.045Z,5.72
2019-04-28T12:34:31.141Z,6.90
2019-04-28T12:36:33.193Z,6.70
2019-04-28T12:38:35.383Z,7.05
2019-04-28T12:40:37.403Z,6.58
2019-04-28T12:42:39.435Z,6.20
2019-04-28T12:44:44.475Z,6.12
2019-04-28T12:46:46.491Z,6.67
2019-04-28T12:48:52.224Z,6.55
2019-04-28T12:50:54.537Z,6.70
2019-04-28T12:52:56.663Z,7.17
2019-04-28T12:54:59.314Z,5.78
2019-04-28T12:57:01.375Z,6.15
2019-04-28T12:59:11.345Z,6.30
2019-04-28T13:01:30.530Z,6.53
2019-04-28T13:03:55.371Z,5.97
2019-04-28T13:06:02.622Z,5.70
2019-04-28T13:08:02.650Z,5.80
2019-04-28T13:10:06.245Z,5.08
2019-04-28T13:14:10.275Z,5.53
2019-04-28T13:16:12.295Z,5.17
2019-04-28T13:18:14.529Z,5.35
2019-04-28T13:20:16.611Z,5.50
2019-04-28T13:22:19.313Z,4.97
2019-04-28T13:24:21.353Z,5.53
2019-04-28T13:26:24.455Z,5.22
2019-04-28T13:28:26.566Z,5.33
2019-04-28T13:30:28.629Z,4.85
2019-04-28T13:32:30.961Z,4.58
2019-04-28T13:34:37.272Z,5.42
2019-04-28T13:36:39.333Z,5.12
2019-04-28T13:38:41.543Z,5.47
2019-04-28T13:40:43.597Z,5.78
2019-04-28T13:42:45.629Z,5.35
2019-04-28T13:44:55.859Z,5.03
2019-04-28T13:46:57.939Z,4.87
2019-04-28T13:49:00.811Z,4.62
2019-04-28T13:51:03.074Z,4.90
2019-04-28T13:53:06.014Z,5.37
2019-04-28T13:55:27.166Z,4.70
2019-04-28T13:57:29.996Z,4.92
2019-04-28T13:59:32.027Z,4.78
2019-04-28T14:02:02.495Z,4.55
2019-04-28T14:04:24.283Z,5.03
2019-04-28T14:06:28.646Z,5.05
2019-04-28T14:08:31.075Z,5.03
2019-04-28T14:10:33.144Z,4.95
2019-04-28T14:12:35.403Z,5.12
2019-04-28T14:14:38.801Z,5.35
2019-04-28T14:16:40.900Z,4.80
2019-04-28T14:18:42.971Z,5.20
2019-04-28T14:20:45.058Z,4.62
2019-04-28T14:22:47.424Z,4.72
2019-04-28T14:24:49.540Z,4.45
2019-04-28T14:26:51.617Z,4.62
2019-04-28T14:28:53.627Z,4.80
2019-04-28T14:30:55.724Z,4.17
2019-04-28T14:32:57.865Z,4.72
2019-04-28T14:35:00.344Z,5.03
2019-04-28T14:37:02.603Z,4.72
2019-04-28T14:39:06.882Z,4.62
2019-04-28T14:41:10.954Z,4.67
2019-04-28T14:43:13.232Z,4.92
2019-04-28T14:45:15.834Z,4.55
2019-04-28T14:47:18.256Z,4.10
2019-04-28T14:51:22.102Z,4.10
2019-04-28T14:53:24.296Z,4.53
2019-04-28T14:55:26.350Z,4.30
2019-04-28T14:57:28.380Z,4.55
2019-04-28T14:59:30.436Z,3.80
2019-04-28T15:02:07.330Z,4.17
2019-04-28T15:04:17.000Z,4.17
2019-04-28T15:06:38.879Z,4.10
2019-04-28T15:09:06.089Z,4.10
2019-04-28T15:11:38.531Z,4.55
2019-04-28T15:13:40.540Z,4.28
2019-04-28T15:15:42.571Z,4.28
2019-04-28T15:17:44.738Z,4.08
2019-04-28T15:19:47.819Z,4.53
2019-04-28T15:21:49.837Z,4.87
2019-04-28T15:23:52.920Z,4.95
2019-04-28T15:25:54.989Z,4.80
2019-04-28T15:27:57.157Z,4.85
2019-04-28T15:29:59.140Z,4.75
2019-04-28T15:32:01.454Z,4.78
2019-04-28T15:34:03.569Z,4.83
2019-04-28T15:36:05.880Z,4.90
2019-04-28T15:38:07.909Z,5.17
2019-04-28T15:40:09.942Z,5.42
2019-04-28T15:42:11.924Z,3.83
2019-04-28T15:44:13.944Z,4.75
2019-04-28T15:46:15.943Z,4.67
2019-04-28T15:48:18.269Z,4.72
2019-04-28T15:50:20.345Z,4.78
2019-04-28T15:52:22.486Z,5.00
2019-04-28T15:54:24.886Z,4.55
2019-04-28T15:56:42.913Z,4.45
2019-04-28T15:58:44.954Z,4.67
2019-04-28T16:00:47.297Z,4.60
2019-04-28T16:02:49.320Z,4.40
2019-04-28T16:04:51.496Z,4.75
2019-04-28T16:06:53.546Z,5.03
2019-04-28T16:08:55.613Z,4.75
2019-04-28T16:10:57.781Z,4.53
2019-04-28T16:12:59.819Z,4.08
2019-04-28T16:15:01.864Z,4.97
2019-04-28T16:17:04.002Z,5.17
2019-04-28T16:19:06.043Z,4.55
2019-04-28T16:21:08.281Z,4.37
2019-04-28T16:25:12.457Z,4.10
2019-04-28T16:27:14.522Z,4.60
2019-04-28T16:29:16.650Z,4.17
2019-04-28T16:31:18.695Z,4.87
2019-04-28T16:33:20.759Z,4.40
2019-04-28T16:35:22.811Z,4.62
2019-04-28T16:37:37.893Z,4.53
2019-04-28T16:39:28.946Z,4.53
2019-04-28T16:41:32.097Z,4.87
2019-04-28T16:43:35.831Z,4.75
2019-04-28T16:45:38.564Z,5.28
2019-04-28T16:47:40.998Z,5.40
2019-04-28T16:51:46.059Z,5.42
2019-04-28T16:53:48.159Z,4.62
2019-04-28T16:56:15.506Z,5.03
2019-04-28T16:58:33.736Z,4.87
2019-04-28T17:01:04.082Z,5.80
2019-04-28T17:03:06.840Z,4.83
2019-04-28T17:05:08.909Z,5.12
2019-04-28T17:07:11.351Z,5.78
2019-04-28T17:09:15.585Z,5.35
2019-04-28T17:11:17.971Z,5.15
2019-04-28T17:13:20.029Z,5.70
2019-04-28T17:15:22.162Z,5.08
2019-04-28T17:17:24.387Z,5.30
2019-04-28T17:19:26.473Z,5.50
2019-04-28T17:21:28.957Z,5.40
2019-04-28T17:23:31.029Z,5.37
2019-04-28T17:25:33.215Z,5.00
2019-04-28T17:27:35.355Z,5.78
2019-04-28T17:29:38.116Z,5.95
2019-04-28T17:31:42.469Z,5.40
2019-04-28T17:33:44.748Z,5.30
2019-04-28T17:35:47.189Z,4.78
2019-04-28T17:37:49.172Z,5.25
2019-04-28T17:39:51.355Z,5.47
2019-04-28T17:41:54.520Z,5.30
2019-04-28T17:43:56.766Z,5.67
2019-04-28T17:45:59.270Z,6.00
2019-04-28T17:50:12.686Z,5.55
2019-04-28T17:52:14.723Z,5.80
2019-04-28T17:54:16.904Z,5.95
2019-04-28T17:56:19.004Z,6.80
2019-04-28T17:58:21.106Z,6.55
2019-04-28T18:00:38.840Z,6.67
2019-04-28T18:03:09.580Z,7.12
2019-04-28T18:05:26.938Z,7.10
2019-04-28T18:07:31.650Z,7.60
2019-04-28T18:09:33.686Z,7.00
2019-04-28T18:11:35.833Z,7.50
2019-04-28T18:13:37.942Z,7.95
2019-04-28T18:16:06.343Z,7.00
2019-04-28T18:18:28.145Z,6.83
2019-04-28T18:20:30.219Z,5.90
2019-04-28T18:22:32.482Z,6.75
2019-04-28T18:24:34.868Z,6.53
2019-04-28T18:26:36.933Z,7.40
2019-04-28T18:28:38.994Z,6.45
2019-04-28T18:30:47.687Z,5.58
2019-04-28T18:33:08.069Z,6.03
2019-04-28T18:35:32.372Z,5.45
2019-04-28T18:38:06.577Z,5.58
2019-04-28T18:40:26.707Z,6.10
2019-04-28T18:42:36.048Z,6.30
2019-04-28T18:44:38.261Z,5.30
2019-04-28T18:46:40.349Z,5.65
2019-04-28T18:48:42.652Z,5.78
2019-04-28T18:50:45.027Z,6.28
2019-04-28T18:52:47.060Z,6.65
2019-04-28T18:54:49.380Z,6.10
2019-04-28T18:56:51.475Z,5.65
2019-04-28T18:58:53.633Z,6.28
2019-04-28T19:01:08.901Z,5.78
2019-04-28T19:03:14.126Z,5.60
2019-04-28T19:05:16.232Z,5.97
2019-04-28T19:07:27.691Z,5.92
2019-04-28T19:09:43.092Z,6.62
2019-04-28T19:11:48.763Z,6.10
2019-04-28T19:14:01.073Z,6.25
2019-04-28T19:16:17.543Z,6.33
2019-04-28T19:18:24.470Z,5.97
2019-04-28T19:20:26.610Z,6.00
2019-04-28T19:22:28.707Z,6.20
2019-04-28T19:24:30.811Z,6.25
2019-04-28T19:26:33.061Z,6.35
2019-04-28T19:28:35.087Z,6.70
2019-04-28T19:30:37.358Z,7.33
2019-04-28T19:32:39.511Z,7.25
2019-04-28T19:34:41.667Z,7.35
2019-04-28T19:36:43.717Z,7.17
2019-04-28T19:38:46.010Z,7.72
2019-04-28T19:40:48.055Z,7.33
2019-04-28T19:42:51.759Z,6.85
2019-04-28T19:44:53.778Z,7.03
2019-04-28T19:46:55.775Z,7.15
2019-04-28T19:48:58.029Z,7.65
2019-04-28T19:51:00.410Z,7.70
2019-04-28T19:53:02.492Z,7.78
2019-04-28T19:55:09.885Z,7.40
2019-04-28T19:57:27.703Z,7.72
2019-04-28T19:59:52.341Z,7.42
2019-04-28T20:01:54.373Z,7.67
2019-04-28T20:03:56.373Z,8.68
2019-04-28T20:05:58.612Z,8.10
2019-04-28T20:08:00.854Z,8.20
2019-04-28T20:10:03.809Z,8.20
2019-04-28T20:12:05.933Z,8.03
2019-04-28T20:14:09.179Z,7.90
2019-04-28T20:16:11.132Z,10.38
2019-04-28T20:18:13.460Z,8.28
2019-04-28T20:20:15.597Z,8.05
2019-04-28T20:22:17.904Z,8.30
2019-04-28T20:24:20.072Z,8.53
2019-04-28T20:26:22.472Z,7.30
2019-04-28T20:28:24.459Z,8.30
2019-04-28T20:30:26.470Z,8.43
2019-04-28T20:32:31.024Z,8.18
2019-04-28T20:34:33.199Z,7.40
2019-04-28T20:37:01.080Z,8.15
2019-04-28T20:39:08.985Z,9.03
2019-04-28T20:41:20.096Z,8.80
2019-04-28T20:43:22.099Z,8.50
2019-04-28T20:45:24.203Z,8.63
2019-04-28T20:47:26.545Z,8.75
2019-04-28T20:49:28.584Z,8.68
2019-04-28T20:51:30.599Z,9.18
2019-04-28T20:53:32.768Z,8.90
2019-04-28T20:55:34.857Z,9.25
2019-04-28T20:57:36.895Z,8.85
2019-04-28T20:59:38.897Z,10.18
2019-04-28T21:01:40.922Z,10.10
2019-04-28T21:03:44.199Z,10.18
2019-04-28T21:05:46.201Z,9.95
2019-04-28T21:07:48.365Z,10.40
2019-04-28T21:09:50.457Z,11.08
2019-04-28T21:11:53.798Z,10.82
2019-04-28T21:13:55.868Z,10.58
2019-04-28T21:15:58.020Z,10.40
2019-04-28T21:17:59.979Z,10.75
2019-04-28T21:20:02.002Z,10.75
2019-04-28T21:22:05.305Z,11.15
2019-04-28T21:24:07.309Z,11.25
2019-04-28T21:26:09.566Z,11.18
2019-04-28T21:30:13.646Z,12.93
2019-04-28T21:32:16.727Z,13.22
2019-04-28T21:34:19.884Z,12.60
2019-04-28T21:36:22.093Z,12.88
2019-04-28T21:38:24.328Z,13.50
2019-04-28T21:40:26.847Z,12.73
2019-04-28T21:45:13.132Z,14.23
2019-04-28T21:47:22.580Z,13.95
2019-04-28T21:49:26.717Z,13.58
2019-04-28T21:51:29.960Z,14.10
2019-04-28T21:53:31.991Z,14.63
2019-04-28T21:55:34.007Z,14.00
2019-04-28T21:57:36.122Z,15.40
2019-04-28T21:59:38.250Z,14.80
2019-04-28T22:01:40.493Z,14.70
2019-04-28T22:03:43.583Z,15.32
2019-04-28T22:05:45.623Z,16.50
2019-04-28T22:07:47.762Z,14.98
2019-04-28T22:09:49.987Z,15.58
2019-04-28T22:11:52.089Z,15.78
2019-04-28T22:13:54.099Z,15.25
2019-04-28T22:15:56.255Z,15.60
2019-04-28T22:17:58.397Z,15.13
2019-04-28T22:20:00.466Z,15.50
2019-04-28T22:22:02.514Z,16.02
2019-04-28T22:24:24.416Z,14.73
2019-04-28T22:26:42.380Z,14.53
2019-04-28T22:28:44.372Z,15.20
2019-04-28T22:30:46.389Z,14.38
2019-04-28T22:32:48.522Z,14.83
2019-04-28T22:34:50.567Z,14.30
2019-04-28T22:36:52.610Z,14.20
2019-04-28T22:38:54.732Z,13.95
2019-04-28T22:40:56.828Z,13.65
2019-04-28T22:42:58.917Z,14.43
2019-04-28T22:45:01.006Z,12.90
2019-04-28T22:47:03.287Z,13.53
2019-04-28T22:49:05.949Z,12.05
2019-04-28T22:51:08.294Z,12.00
2019-04-28T22:53:10.748Z,13.13
2019-04-28T22:57:36.447Z,12.82
2019-04-28T22:59:40.815Z,13.13
2019-04-28T23:01:45.033Z,13.30
2019-04-28T23:04:08.383Z,13.05
2019-04-28T23:06:10.724Z,13.70
2019-04-28T23:10:14.582Z,12.70
2019-04-28T23:12:16.688Z,12.53
2019-04-28T23:14:19.131Z,12.73
2019-04-28T23:16:22.385Z,13.35
2019-04-28T23:18:24.385Z,13.43
2019-04-28T23:20:28.750Z,13.90
2019-04-28T23:22:46.785Z,12.88
2019-04-28T23:26:45.152Z,13.18
2019-04-28T23:28:48.318Z,13.98
2019-04-28T23:30:52.221Z,12.90
2019-04-28T23:32:54.262Z,14.00
2019-04-28T23:34:56.394Z,12.93
2019-04-28T23:36:58.468Z,13.38
2019-04-28T23:39:47.113Z,13.78
2019-04-28T23:42:07.473Z,12.78
2019-04-28T23:44:09.740Z,13.98
2019-04-28T23:46:12.863Z,13.22
2019-04-28T23:48:14.891Z,13.85
2019-04-28T23:50:20.534Z,14.38
2019-04-28T23:52:29.451Z,13.95
2019-04-28T23:54:33.164Z,12.88
2019-04-28T23:56:35.084Z,12.98
2019-04-28T23:58:37.074Z,13.15
